Time,TemperatureF,DewpointF,PressureIn,WindDirection,WindDirectionDegrees,WindSpeedMPH,WindSpeedGustMPH,Humidity,HourlyPrecipIn,Conditions,Clouds,dailyrainin,SoftwareType,DateUTC
2013-06-18 00:00:00,65.1,39.6,29.90,ENE,67,0.0,0.0,39,0.00,,-RA,0.00,VWS V14.01,2013-06-18 04:00:00,
2013-06-18 00:01:00,65.1,39.6,29.90,ENE,67,0.0,0.0,39,0.00,,BKN110,0.00,VWS V14.01,2013-06-18 04:01:00,
2013-06-18 00:02:00,65.1,39.6,29.90,ENE,67,0.0,0.0,39,0.00,,BKN110,0.00,VWS V14.01,2013-06-18 04:02:00,
2013-06-18 00:07:00,65.3,39.7,29.90,ENE,67,0.0,0.0,39,0.00,,BKN110,0.00,VWS V14.01,2013-06-18 04:07:00,
2013-06-18 00:12:00,65.5,39.9,29.90,East,83,0.0,0.0,39,0.00,,BKN110,0.00,VWS V14.01,2013-06-18 04:12:00,
2013-06-18 00:17:00,65.5,39.9,29.90,East,83,0.0,0.0,39,0.00,,BKN110,0.00,VWS V14.01,2013-06-18 04:17:00,
2013-06-18 00:22:00,65.5,39.9,29.90,East,83,0.0,0.0,39,0.00,,BKN110,0.00,VWS V14.01,2013-06-18 04:22:00,
2013-06-18 00:27:00,65.5,39.9,29.90,East,83,0.0,0.0,39,0.00,,BKN110,0.00,VWS V14.01,2013-06-18 04:27:00,
2013-06-18 00:33:00,65.5,39.2,29.90,East,83,0.0,0.0,38,0.00,,BKN110,0.00,VWS V14.01,2013-06-18 04:33:00,
2013-06-18 00:40:00,65.3,39.1,29.90,East,83,0.0,0.0,38,0.00,,BKN110,0.00,VWS V14.01,2013-06-18 04:40:00,
2013-06-18 00:45:00,65.3,39.1,29.90,East,83,0.0,0.0,38,0.00,,BKN110,0.00,VWS V14.01,2013-06-18 04:45:00,
2013-06-18 00:50:00,65.5,39.2,29.90,East,83,0.0,0.0,38,0.00,,BKN110,0.00,VWS V14.01,2013-06-18 04:50:00,
2013-06-18 00:55:00,65.5,39.2,29.90,East,83,0.0,0.0,38,0.00,,BKN110,0.00,VWS V14.01,2013-06-18 04:55:00,
2013-06-18 01:01:00,65.5,39.2,29.90,East,83,0.0,0.0,38,0.00,,OVC100,0.00,VWS V14.01,2013-06-18 05:01:00,
2013-06-18 01:06:00,65.3,39.1,29.90,East,83,0.0,0.0,38,0.00,,OVC100,0.00,VWS V14.01,2013-06-18 05:06:00,
2013-06-18 01:11:00,65.1,38.9,29.87,East,83,0.0,0.0,38,0.00,,OVC100,0.00,VWS V14.01,2013-06-18 05:11:00,
2013-06-18 01:16:00,65.1,38.9,29.87,East,83,0.0,0.0,38,0.00,,OVC100,0.00,VWS V14.01,2013-06-18 05:16:00,
2013-06-18 01:21:00,64.9,38.1,29.87,East,83,0.0,0.0,37,0.00,,OVC100,0.00,VWS V14.01,2013-06-18 05:21:00,
2013-06-18 01:26:00,64.8,37.9,29.87,East,83,0.0,0.0,37,0.00,,OVC100,0.00,VWS V14.01,2013-06-18 05:26:00,
2013-06-18 01:31:00,64.6,37.8,29.87,East,83,0.0,0.0,37,0.00,,OVC100,0.00,VWS V14.01,2013-06-18 05:31:00,
2013-06-18 01:36:00,64.6,38.4,29.87,East,83,0.0,0.0,38,0.00,,OVC100,0.00,VWS V14.01,2013-06-18 05:36:00,
2013-06-18 01:41:00,64.6,39.1,29.87,East,83,0.0,0.0,39,0.00,,OVC100,0.00,VWS V14.01,2013-06-18 05:41:00,
2013-06-18 01:46:00,64.6,38.4,29.87,East,83,0.0,0.0,38,0.00,,OVC100,0.00,VWS V14.01,2013-06-18 05:46:00,
2013-06-18 01:51:00,64.4,38.3,29.87,East,83,0.0,0.0,38,0.00,,OVC100,0.00,VWS V14.01,2013-06-18 05:51:00,
2013-06-18 01:57:00,64.6,39.1,29.87,East,83,0.0,0.0,39,0.00,,OVC100,0.00,VWS V14.01,2013-06-18 05:57:00,
2013-06-18 02:02:00,64.6,39.1,29.87,East,83,0.0,0.0,39,0.00,,OVC100,0.00,VWS V14.01,2013-06-18 06:02:00,
2013-06-18 02:07:00,64.6,39.1,29.87,East,83,0.0,0.0,39,0.00,,OVC100,0.00,VWS V14.01,2013-06-18 06:07:00,
2013-06-18 02:12:00,64.6,39.1,29.87,East,83,0.0,0.0,39,0.00,,OVC100,0.00,VWS V14.01,2013-06-18 06:12:00,
2013-06-18 02:17:00,64.6,39.1,29.87,East,83,0.0,0.0,39,0.00,,OVC100,0.00,VWS V14.01,2013-06-18 06:17:00,
2013-06-18 02:22:00,64.8,39.2,29.87,East,83,0.0,0.0,39,0.00,,OVC100,0.00,VWS V14.01,2013-06-18 06:22:00,
2013-06-18 02:27:00,64.8,39.2,29.87,ESE,112,0.0,0.0,39,0.00,,OVC100,0.00,VWS V14.01,2013-06-18 06:27:00,
2013-06-18 02:32:00,64.8,38.6,29.87,ESE,112,0.0,0.0,38,0.00,,OVC100,0.00,VWS V14.01,2013-06-18 06:32:00,
2013-06-18 02:37:00,64.4,38.3,29.87,ESE,112,0.0,0.0,38,0.00,,OVC100,0.00,VWS V14.01,2013-06-18 06:37:00,
2013-06-18 02:42:00,64.4,38.3,29.87,ESE,112,0.0,0.0,38,0.00,,OVC100,0.00,VWS V14.01,2013-06-18 06:42:00,
2013-06-18 02:48:00,64.4,38.3,29.87,ESE,112,0.0,0.0,38,0.00,,OVC100,0.00,VWS V14.01,2013-06-18 06:48:00,
2013-06-18 02:53:00,64.2,38.8,29.84,ESE,112,0.0,0.0,39,0.00,,OVC100,0.00,VWS V14.01,2013-06-18 06:53:00,
2013-06-18 02:58:00,64.2,38.8,29.84,SSE,151,0.0,0.0,39,0.00,,OVC100,0.00,VWS V14.01,2013-06-18 06:58:00,
2013-06-18 03:03:00,64.2,38.8,29.84,SSE,151,0.0,0.0,39,0.00,,BKN110,0.00,VWS V14.01,2013-06-18 07:03:00,
2013-06-18 03:08:00,64.2,38.8,29.84,SSE,151,0.0,0.0,39,0.00,,BKN110,0.00,VWS V14.01,2013-06-18 07:08:00,
2013-06-18 03:13:00,64.2,38.8,29.84,SSE,151,0.0,0.0,39,0.00,,BKN110,0.00,VWS V14.01,2013-06-18 07:13:00,
2013-06-18 03:18:00,64.4,38.9,29.84,SSE,151,0.0,0.0,39,0.00,,BKN110,0.00,VWS V14.01,2013-06-18 07:18:00,
2013-06-18 03:23:00,64.4,38.9,29.84,SSE,151,0.0,0.0,39,0.00,,BKN110,0.00,VWS V14.01,2013-06-18 07:23:00,
2013-06-18 03:28:00,64.2,39.4,29.84,SSE,151,0.0,0.0,40,0.00,,BKN110,0.00,VWS V14.01,2013-06-18 07:28:00,
2013-06-18 03:33:00,64.2,39.4,29.84,SSE,151,0.0,0.0,40,0.00,,BKN110,0.00,VWS V14.01,2013-06-18 07:33:00,
2013-06-18 03:38:00,64.2,39.4,29.84,SSE,151,0.0,0.0,40,0.00,,BKN110,0.00,VWS V14.01,2013-06-18 07:38:00,
2013-06-18 03:43:00,64.2,39.4,29.84,SSE,151,0.0,0.0,40,0.00,,BKN110,0.00,VWS V14.01,2013-06-18 07:43:00,
2013-06-18 03:48:00,64.2,39.4,29.84,SSE,151,0.0,0.0,40,0.00,,BKN110,0.00,VWS V14.01,2013-06-18 07:48:00,
2013-06-18 03:54:00,64.2,40.0,29.84,SSE,151,0.0,0.0,41,0.00,,BKN110,0.00,VWS V14.01,2013-06-18 07:54:00,
2013-06-18 03:59:00,64.2,40.0,29.84,SSE,151,0.0,0.0,41,0.00,,BKN110,0.00,VWS V14.01,2013-06-18 07:59:00,
2013-06-18 04:04:00,64.2,39.4,29.84,SSE,151,0.0,0.0,40,0.00,,OVC080,0.00,VWS V14.01,2013-06-18 08:04:00,
2013-06-18 04:09:00,64.2,39.4,29.84,SSE,151,0.0,0.0,40,0.00,,OVC080,0.00,VWS V14.01,2013-06-18 08:09:00,
2013-06-18 04:14:00,64.2,39.4,29.84,SSE,151,0.0,0.0,40,0.00,,OVC080,0.00,VWS V14.01,2013-06-18 08:14:00,
2013-06-18 04:19:00,64.4,40.2,29.84,SSE,151,0.0,0.0,41,0.00,,OVC080,0.00,VWS V14.01,2013-06-18 08:19:00,
2013-06-18 04:24:00,64.4,41.4,29.84,SSE,151,0.0,0.0,43,0.00,,OVC080,0.00,VWS V14.01,2013-06-18 08:24:00,
2013-06-18 04:29:00,64.4,41.4,29.84,SSE,151,0.0,0.0,43,0.00,,OVC080,0.00,VWS V14.01,2013-06-18 08:29:00,
2013-06-18 04:34:00,64.2,40.7,29.84,SSE,150,0.0,0.0,42,0.00,,OVC080,0.00,VWS V14.01,2013-06-18 08:34:00,
2013-06-18 04:39:00,64.2,40.7,29.84,SSE,150,0.0,0.0,42,0.00,,OVC080,0.00,VWS V14.01,2013-06-18 08:39:00,
2013-06-18 04:44:00,64.0,41.1,29.84,SSE,168,0.0,0.0,43,0.00,,OVC080,0.00,VWS V14.01,2013-06-18 08:44:00,
2013-06-18 04:49:00,64.0,41.1,29.84,SSE,168,0.0,0.0,43,0.00,,OVC080,0.00,VWS V14.01,2013-06-18 08:49:00,
2013-06-18 04:54:00,64.0,42.3,29.84,ESE,113,0.0,0.0,45,0.00,,OVC080,0.00,VWS V14.01,2013-06-18 08:54:00,
2013-06-18 04:59:00,64.0,42.3,29.84,ESE,113,0.0,0.0,45,0.00,,OVC080,0.00,VWS V14.01,2013-06-18 08:59:00,
2013-06-18 05:04:00,63.9,41.0,29.84,ESE,113,0.0,0.0,43,0.00,,BKN006,0.00,VWS V14.01,2013-06-18 09:04:00,
2013-06-18 05:10:00,63.7,40.2,29.84,ESE,113,0.0,0.0,42,0.00,,BKN006,0.00,VWS V14.01,2013-06-18 09:10:00,
2013-06-18 05:15:00,63.7,40.2,29.84,ESE,113,0.0,0.0,42,0.00,,BKN006,0.00,VWS V14.01,2013-06-18 09:15:00,
2013-06-18 05:20:00,63.5,40.6,29.84,ESE,113,0.0,0.0,43,0.00,,BKN006,0.00,VWS V14.01,2013-06-18 09:20:00,
2013-06-18 05:25:00,63.3,40.5,29.84,ESE,113,0.0,0.0,43,0.00,,BKN006,0.00,VWS V14.01,2013-06-18 09:25:00,
2013-06-18 05:30:00,63.3,40.5,29.84,ESE,113,0.0,0.0,43,0.00,,BKN006,0.00,VWS V14.01,2013-06-18 09:30:00,
2013-06-18 05:35:00,63.5,42.4,29.84,ESE,113,0.0,0.0,46,0.00,,BKN006,0.00,VWS V14.01,2013-06-18 09:35:00,
2013-06-18 05:40:00,63.5,43.5,29.84,ESE,120,0.0,0.0,48,0.00,,BKN006,0.00,VWS V14.01,2013-06-18 09:40:00,
2013-06-18 05:45:00,63.9,44.3,29.84,ESE,120,0.0,0.0,49,0.00,,BKN006,0.00,VWS V14.01,2013-06-18 09:45:00,
2013-06-18 05:50:00,63.9,44.3,29.84,South,176,0.0,0.0,49,0.00,,BKN006,0.00,VWS V14.01,2013-06-18 09:50:00,
2013-06-18 05:55:00,64.0,44.5,29.84,South,176,0.0,0.0,49,0.00,,BKN006,0.00,VWS V14.01,2013-06-18 09:55:00,
2013-06-18 06:01:00,64.0,44.5,29.84,South,170,0.0,0.0,49,0.00,,SCT110,0.00,VWS V14.01,2013-06-18 10:01:00,
2013-06-18 06:06:00,63.9,42.7,29.84,South,170,0.0,0.0,46,0.00,,SCT110,0.00,VWS V14.01,2013-06-18 10:06:00,
2013-06-18 06:11:00,63.7,42.0,29.84,South,170,0.0,0.0,45,0.00,,SCT110,0.00,VWS V14.01,2013-06-18 10:11:00,
2013-06-18 06:16:00,63.9,42.7,29.84,South,170,0.0,0.0,46,0.00,,SCT110,0.00,VWS V14.01,2013-06-18 10:16:00,
2013-06-18 06:21:00,63.9,43.3,29.84,South,170,0.0,0.0,47,0.00,,SCT110,0.00,VWS V14.01,2013-06-18 10:21:00,
2013-06-18 06:26:00,63.9,43.3,29.84,South,170,0.0,0.0,47,0.00,,SCT110,0.00,VWS V14.01,2013-06-18 10:26:00,
2013-06-18 06:31:00,64.0,45.0,29.84,WSW,251,0.0,0.0,50,0.00,,SCT110,0.00,VWS V14.01,2013-06-18 10:31:00,
2013-06-18 06:36:00,64.0,45.0,29.84,SW,219,0.0,0.0,50,0.00,,SCT110,0.00,VWS V14.01,2013-06-18 10:36:00,
2013-06-18 06:41:00,64.0,45.0,29.84,SSW,212,0.0,0.0,50,0.00,,SCT110,0.00,VWS V14.01,2013-06-18 10:41:00,
2013-06-18 06:46:00,64.0,44.5,29.84,SSW,212,0.0,0.0,49,0.00,,SCT110,0.00,VWS V14.01,2013-06-18 10:46:00,
2013-06-18 06:52:00,64.0,44.5,29.84,SSW,212,0.0,0.0,49,0.00,,SCT110,0.00,VWS V14.01,2013-06-18 10:52:00,
2013-06-18 06:57:00,64.0,42.9,29.84,SSW,212,0.0,0.0,46,0.00,,SCT110,0.00,VWS V14.01,2013-06-18 10:57:00,
2013-06-18 07:02:00,64.2,44.1,29.84,ESE,106,0.0,0.0,48,0.00,,OVC006,0.00,VWS V14.01,2013-06-18 11:02:00,
2013-06-18 07:07:00,64.2,44.1,29.84,SSE,162,0.0,0.0,48,0.00,,OVC006,0.00,VWS V14.01,2013-06-18 11:07:00,
2013-06-18 07:12:00,64.2,44.1,29.84,SSE,162,0.0,0.0,48,0.00,,OVC006,0.00,VWS V14.01,2013-06-18 11:12:00,
2013-06-18 07:17:00,64.6,45.0,29.84,SSE,162,0.0,0.0,49,0.00,,OVC006,0.00,VWS V14.01,2013-06-18 11:17:00,
2013-06-18 07:22:00,64.6,45.0,29.84,SSE,162,0.0,0.0,49,0.00,,OVC006,0.00,VWS V14.01,2013-06-18 11:22:00,
2013-06-18 07:27:00,64.8,45.2,29.84,SSE,162,0.0,0.0,49,0.00,,OVC006,0.00,VWS V14.01,2013-06-18 11:27:00,
2013-06-18 07:32:00,64.8,44.6,29.84,SSE,162,0.0,0.0,48,0.00,,OVC006,0.00,VWS V14.01,2013-06-18 11:32:00,
2013-06-18 07:38:00,64.8,44.1,29.81,ESE,113,0.0,0.0,47,0.00,,OVC006,0.00,VWS V14.01,2013-06-18 11:38:00,
2013-06-18 07:43:00,64.8,44.1,29.81,South,170,0.0,0.0,47,0.00,,OVC006,0.00,VWS V14.01,2013-06-18 11:43:00,
2013-06-18 07:48:00,64.8,45.2,29.81,SSW,201,0.0,0.0,49,0.00,,OVC006,0.00,VWS V14.01,2013-06-18 11:48:00,
2013-06-18 07:53:00,64.6,44.5,29.84,WSW,245,0.0,0.0,48,0.00,,OVC006,0.00,VWS V14.01,2013-06-18 11:53:00,
2013-06-18 07:58:00,64.8,44.1,29.84,WSW,245,0.0,0.0,47,0.00,,OVC006,0.00,VWS V14.01,2013-06-18 11:58:00,
2013-06-18 08:03:00,64.8,43.5,29.84,WSW,245,0.0,0.0,46,0.00,,OVC006,0.00,VWS V14.01,2013-06-18 12:03:00,
2013-06-18 08:08:00,64.9,43.1,29.84,WSW,245,0.0,0.0,45,0.00,,OVC006,0.00,VWS V14.01,2013-06-18 12:08:00,
2013-06-18 08:13:00,64.9,43.1,29.84,WSW,245,0.0,0.0,45,0.00,,OVC006,0.00,VWS V14.01,2013-06-18 12:13:00,
2013-06-18 08:18:00,64.9,43.1,29.84,WSW,245,0.0,0.0,45,0.00,,OVC006,0.00,VWS V14.01,2013-06-18 12:18:00,
2013-06-18 08:23:00,64.9,43.1,29.84,WSW,245,0.0,0.0,45,0.00,,OVC006,0.00,VWS V14.01,2013-06-18 12:23:00,
2013-06-18 08:28:00,64.9,43.1,29.84,WSW,245,0.0,0.0,45,0.00,,OVC006,0.00,VWS V14.01,2013-06-18 12:28:00,
2013-06-18 08:33:00,64.9,43.1,29.84,NNE,12,0.0,0.0,45,0.00,,OVC006,0.00,VWS V14.01,2013-06-18 12:33:00,
2013-06-18 08:39:00,65.8,42.7,29.84,North,353,0.0,3.6,43,0.00,,OVC006,0.00,VWS V14.01,2013-06-18 12:39:00,
2013-06-18 08:44:00,65.8,40.2,29.84,North,357,0.0,0.0,39,0.00,,OVC006,0.00,VWS V14.01,2013-06-18 12:44:00,
2013-06-18 08:49:00,66.0,41.7,29.84,SSE,159,0.0,0.0,41,0.00,,OVC006,0.00,VWS V14.01,2013-06-18 12:49:00,
2013-06-18 08:54:00,66.4,41.3,29.84,SSE,159,0.0,0.0,40,0.00,,OVC006,0.00,VWS V14.01,2013-06-18 12:54:00,
2013-06-18 08:59:00,66.6,39.5,29.84,NW,318,0.0,0.0,37,0.00,,OVC006,0.00,VWS V14.01,2013-06-18 12:59:00,
2013-06-18 09:04:00,66.7,39.7,29.84,NNW,327,0.0,0.0,37,0.00,,FEW100,0.00,VWS V14.01,2013-06-18 13:04:00,
2013-06-18 09:09:00,66.7,39.7,29.84,NNW,327,0.0,0.0,37,0.00,,FEW100,0.00,VWS V14.01,2013-06-18 13:09:00,
2013-06-18 09:14:00,67.1,40.0,29.84,NNW,327,0.0,0.0,37,0.00,,FEW100,0.00,VWS V14.01,2013-06-18 13:14:00,
2013-06-18 09:19:00,66.9,39.8,29.84,WSW,245,0.0,0.0,37,0.00,,FEW100,0.00,VWS V14.01,2013-06-18 13:19:00,
2013-06-18 09:25:00,66.6,39.5,29.84,ESE,120,0.0,0.0,37,0.00,,FEW100,0.00,VWS V14.01,2013-06-18 13:25:00,
2013-06-18 09:30:00,65.8,38.2,29.84,WSW,253,0.0,0.0,36,0.00,,FEW100,0.00,VWS V14.01,2013-06-18 13:30:00,
2013-06-18 09:35:00,65.8,38.2,29.84,SE,126,0.0,3.6,36,0.00,,FEW100,0.00,VWS V14.01,2013-06-18 13:35:00,
2013-06-18 09:40:00,65.3,39.1,29.84,West,272,0.0,0.0,38,0.00,,FEW100,0.00,VWS V14.01,2013-06-18 13:40:00,
2013-06-18 09:45:00,65.5,39.9,29.84,West,272,0.0,0.0,39,0.00,,FEW100,0.00,VWS V14.01,2013-06-18 13:45:00,
2013-06-18 09:50:00,65.5,39.9,29.84,SSW,198,0.0,4.0,39,0.00,,FEW100,0.00,VWS V14.01,2013-06-18 13:50:00,
2013-06-18 09:55:00,65.5,40.5,29.84,WSW,257,0.0,0.0,40,0.00,,FEW100,0.00,VWS V14.01,2013-06-18 13:55:00,
2013-06-18 10:00:00,65.5,40.5,29.84,South,172,0.0,0.0,40,0.00,,FEW100,0.00,VWS V14.01,2013-06-18 14:00:00,
2013-06-18 10:05:00,65.5,41.2,29.84,East,90,2.7,2.7,41,0.00,,SCT075,0.00,VWS V14.01,2013-06-18 14:05:00,
2013-06-18 10:10:00,65.5,41.2,29.84,SW,232,0.0,0.0,41,0.00,,SCT075,0.00,VWS V14.01,2013-06-18 14:10:00,
2013-06-18 10:15:00,65.5,41.8,29.84,SSE,166,0.0,5.4,42,0.00,,SCT075,0.00,VWS V14.01,2013-06-18 14:15:00,
2013-06-18 10:21:00,65.5,41.8,29.84,WNW,284,0.0,2.7,42,0.00,,SCT075,0.00,VWS V14.01,2013-06-18 14:21:00,
2013-06-18 10:26:00,65.5,41.8,29.84,WNW,284,0.0,0.0,42,0.00,,SCT075,0.00,VWS V14.01,2013-06-18 14:26:00,
2013-06-18 10:31:00,65.5,41.2,29.84,SSE,160,4.0,4.0,41,0.00,,SCT075,0.00,VWS V14.01,2013-06-18 14:31:00,
2013-06-18 10:36:00,65.7,41.3,29.84,SSE,168,0.0,0.0,41,0.00,,SCT075,0.00,VWS V14.01,2013-06-18 14:36:00,
2013-06-18 10:41:00,66.2,40.5,29.84,SSE,168,0.0,0.0,39,0.00,,SCT075,0.00,VWS V14.01,2013-06-18 14:41:00,
2013-06-18 10:46:00,66.2,40.5,29.84,ESE,119,0.0,0.0,39,0.00,,SCT075,0.00,VWS V14.01,2013-06-18 14:46:00,
2013-06-18 10:51:00,66.2,40.5,29.84,ESE,119,0.0,0.0,39,0.00,,SCT075,0.00,VWS V14.01,2013-06-18 14:51:00,
2013-06-18 10:56:00,67.1,40.7,29.84,SE,130,2.7,2.7,38,0.00,,SCT075,0.00,VWS V14.01,2013-06-18 14:56:00,
2013-06-18 11:01:00,67.1,40.7,29.84,NE,36,0.0,0.0,38,0.00,,-RA,0.00,VWS V14.01,2013-06-18 15:01:00,
2013-06-18 11:06:00,67.6,39.0,29.81,ENE,60,2.2,2.2,35,0.00,,-RA,0.00,VWS V14.01,2013-06-18 15:06:00,
2013-06-18 11:11:00,68.0,39.3,29.81,East,87,0.0,0.0,35,0.00,,-RA,0.00,VWS V14.01,2013-06-18 15:11:00,
2013-06-18 11:16:00,69.4,42.1,29.81,SSW,209,0.0,0.0,37,0.00,,-RA,0.00,VWS V14.01,2013-06-18 15:16:00,
2013-06-18 11:22:00,70.5,39.3,29.81,SW,225,0.0,0.0,32,0.00,,-RA,0.00,VWS V14.01,2013-06-18 15:22:00,
2013-06-18 11:27:00,70.5,39.3,29.81,SSE,154,2.2,2.7,32,0.00,,-RA,0.00,VWS V14.01,2013-06-18 15:27:00,
2013-06-18 11:32:00,73.8,33.7,29.81,SW,214,0.0,0.0,23,0.00,,-RA,0.00,VWS V14.01,2013-06-18 15:32:00,
2013-06-18 11:37:00,74.1,39.0,29.81,WSW,250,0.0,0.0,28,0.00,,-RA,0.00,VWS V14.01,2013-06-18 15:37:00,
2013-06-18 11:42:00,76.6,32.6,29.81,South,178,2.7,2.7,20,0.00,,-RA,0.00,VWS V14.01,2013-06-18 15:42:00,
2013-06-18 11:47:00,78.3,31.3,29.81,South,189,0.0,0.0,18,0.00,,-RA,0.00,VWS V14.01,2013-06-18 15:47:00,
2013-06-18 11:52:00,79.3,34.8,29.81,SW,233,3.6,3.6,20,0.00,,-RA,0.00,VWS V14.01,2013-06-18 15:52:00,
2013-06-18 11:57:00,80.6,27.0,29.81,SW,234,3.6,3.6,14,0.00,,-RA,0.00,VWS V14.01,2013-06-18 15:57:00,
2013-06-18 12:02:00,80.2,28.4,29.81,SSE,160,3.6,3.6,15,0.00,,BKN110,0.00,VWS V14.01,2013-06-18 16:02:00,
2013-06-18 12:07:00,80.1,28.3,29.81,ENE,64,0.0,0.0,15,0.00,,BKN110,0.00,VWS V14.01,2013-06-18 16:07:00,
2013-06-18 12:12:00,79.0,27.4,29.81,SE,129,2.7,2.7,15,0.00,,BKN110,0.00,VWS V14.01,2013-06-18 16:12:00,
2013-06-18 12:18:00,77.9,26.6,29.81,SSE,156,3.1,3.1,15,0.00,,BKN110,0.00,VWS V14.01,2013-06-18 16:18:00,
2013-06-18 12:23:00,77.5,26.3,29.81,SSE,156,0.0,0.0,15,0.00,,BKN110,0.00,VWS V14.01,2013-06-18 16:23:00,
2013-06-18 12:28:00,77.5,26.3,29.81,SW,232,3.1,3.1,15,0.00,,BKN110,0.00,VWS V14.01,2013-06-18 16:28:00,
2013-06-18 12:33:00,77.5,26.3,29.81,North,357,0.0,2.2,15,0.00,,BKN110,0.00,VWS V14.01,2013-06-18 16:33:00,
2013-06-18 12:38:00,77.5,26.3,29.81,ESE,117,0.0,0.0,15,0.00,,BKN110,0.00,VWS V14.01,2013-06-18 16:38:00,
2013-06-18 12:43:00,75.7,24.9,29.81,East,100,3.1,3.1,15,0.00,,BKN110,0.00,VWS V14.01,2013-06-18 16:43:00,
2013-06-18 12:48:00,75.7,24.9,29.81,SE,131,3.1,3.1,15,0.00,,BKN110,0.00,VWS V14.01,2013-06-18 16:48:00,
2013-06-18 12:53:00,78.1,31.2,29.81,NW,311,2.7,2.7,18,0.00,,BKN110,0.00,VWS V14.01,2013-06-18 16:53:00,
2013-06-18 12:59:00,78.1,31.2,29.81,SE,125,2.2,2.2,18,0.00,,BKN110,0.00,VWS V14.01,2013-06-18 16:59:00,
2013-06-18 13:04:00,81.0,27.3,29.81,SW,225,5.4,5.4,14,0.00,,OVC047,0.00,VWS V14.01,2013-06-18 17:04:00,
2013-06-18 13:09:00,81.7,27.9,29.81,WNW,299,0.0,0.0,14,0.00,,OVC047,0.00,VWS V14.01,2013-06-18 17:09:00,
2013-06-18 13:14:00,81.7,27.9,29.81,West,275,3.1,4.9,14,0.00,,OVC047,0.00,VWS V14.01,2013-06-18 17:14:00,
2013-06-18 13:19:00,80.8,27.2,29.81,SW,234,2.2,5.8,14,0.00,,OVC047,0.00,VWS V14.01,2013-06-18 17:19:00,
2013-06-18 13:24:00,80.8,27.2,29.81,SW,233,2.7,2.7,14,0.00,,OVC047,0.00,VWS V14.01,2013-06-18 17:24:00,
2013-06-18 13:29:00,80.8,27.2,29.81,South,178,2.2,2.2,14,0.00,,OVC047,0.00,VWS V14.01,2013-06-18 17:29:00,
2013-06-18 13:34:00,80.8,27.2,29.81,South,176,0.0,0.0,14,0.00,,OVC047,0.00,VWS V14.01,2013-06-18 17:34:00,
2013-06-18 13:39:00,84.9,28.6,29.78,WSW,244,3.1,6.3,13,0.00,,OVC047,0.00,VWS V14.01,2013-06-18 17:39:00,
2013-06-18 13:44:00,84.9,28.6,29.78,ESE,115,5.4,5.4,13,0.00,,OVC047,0.00,VWS V14.01,2013-06-18 17:44:00,
2013-06-18 13:50:00,84.2,28.1,29.78,WSW,252,4.0,4.0,13,0.00,,OVC047,0.00,VWS V14.01,2013-06-18 17:50:00,
2013-06-18 13:55:00,83.1,29.0,29.78,SSE,158,4.0,4.0,14,0.00,,OVC047,0.00,VWS V14.01,2013-06-18 17:55:00,
2013-06-18 14:00:00,83.1,29.0,29.78,SSW,203,2.2,2.7,14,0.00,,OVC047,0.00,VWS V14.01,2013-06-18 18:00:00,
2013-06-18 14:05:00,81.5,27.8,29.78,SSE,153,2.7,3.1,14,0.00,,OVC050,0.00,VWS V14.01,2013-06-18 18:05:00,
2013-06-18 14:10:00,81.5,27.8,29.78,South,189,3.6,3.6,14,0.00,,OVC050,0.00,VWS V14.01,2013-06-18 18:10:00,
2013-06-18 14:15:00,83.8,29.6,29.78,West,278,3.1,3.1,14,0.00,,OVC050,0.00,VWS V14.01,2013-06-18 18:15:00,
2013-06-18 14:20:00,83.8,29.6,29.78,SSW,193,0.0,2.2,14,0.00,,OVC050,0.00,VWS V14.01,2013-06-18 18:20:00,
2013-06-18 14:25:00,83.8,29.6,29.78,ESE,118,2.2,2.7,14,0.00,,OVC050,0.00,VWS V14.01,2013-06-18 18:25:00,
2013-06-18 14:31:00,81.1,27.5,29.78,South,171,0.0,0.0,14,0.00,,OVC050,0.00,VWS V14.01,2013-06-18 18:31:00,
2013-06-18 14:36:00,81.1,27.5,29.78,ESE,110,2.7,2.7,14,0.00,,OVC050,0.00,VWS V14.01,2013-06-18 18:36:00,
2013-06-18 14:41:00,81.1,27.5,29.78,SSW,192,3.1,4.0,14,0.00,,OVC050,0.00,VWS V14.01,2013-06-18 18:41:00,
2013-06-18 14:46:00,81.1,27.5,29.78,South,174,3.1,5.4,14,0.00,,OVC050,0.00,VWS V14.01,2013-06-18 18:46:00,
2013-06-18 14:51:00,81.1,27.5,29.78,South,174,2.7,2.7,14,0.00,,OVC050,0.00,VWS V14.01,2013-06-18 18:51:00,
2013-06-18 14:56:00,81.1,27.5,29.78,SE,128,0.0,0.0,14,0.00,,OVC050,0.00,VWS V14.01,2013-06-18 18:56:00,
2013-06-18 15:01:00,81.1,27.5,29.78,SE,139,0.0,0.0,14,0.00,,OVC065,0.00,VWS V14.01,2013-06-18 19:01:00,
2013-06-18 15:06:00,77.7,26.4,29.78,SE,146,2.2,2.2,15,0.00,,OVC065,0.00,VWS V14.01,2013-06-18 19:06:00,
2013-06-18 15:11:00,77.7,26.4,29.78,SE,130,2.7,2.7,15,0.00,,OVC065,0.00,VWS V14.01,2013-06-18 19:11:00,
2013-06-18 15:16:00,77.7,26.4,29.78,SE,132,2.7,2.7,15,0.00,,OVC065,0.00,VWS V14.01,2013-06-18 19:16:00,
2013-06-18 15:22:00,77.7,26.4,29.78,South,180,3.6,3.6,15,0.00,,OVC065,0.00,VWS V14.01,2013-06-18 19:22:00,
2013-06-18 15:27:00,77.7,26.4,29.78,ESE,104,2.2,2.7,15,0.00,,OVC065,0.00,VWS V14.01,2013-06-18 19:27:00,
2013-06-18 15:32:00,77.7,26.4,29.78,South,171,0.0,4.0,15,0.00,,OVC065,0.00,VWS V14.01,2013-06-18 19:32:00,
2013-06-18 15:37:00,77.7,26.4,29.78,NE,46,0.0,0.0,15,0.00,,OVC065,0.00,VWS V14.01,2013-06-18 19:37:00,
2013-06-18 15:42:00,77.9,26.6,29.78,ESE,120,2.7,2.7,15,0.00,,OVC065,0.00,VWS V14.01,2013-06-18 19:42:00,
2013-06-18 15:47:00,80.4,28.6,29.78,South,175,2.7,2.7,15,0.00,,OVC065,0.00,VWS V14.01,2013-06-18 19:47:00,
2013-06-18 15:52:00,80.4,28.6,29.78,ESE,105,2.7,3.1,15,0.00,,OVC065,0.00,VWS V14.01,2013-06-18 19:52:00,
2013-06-18 15:57:00,80.4,28.6,29.78,ESE,116,2.2,2.2,15,0.00,,OVC065,0.00,VWS V14.01,2013-06-18 19:57:00,
2013-06-18 16:02:00,80.4,28.6,29.78,WSW,249,0.0,0.0,15,0.00,,-RA,0.00,VWS V14.01,2013-06-18 20:02:00,
2013-06-18 16:07:00,80.4,28.6,29.78,ESE,121,3.6,3.6,15,0.00,,-RA,0.00,VWS V14.01,2013-06-18 20:07:00,
2013-06-18 16:12:00,85.3,28.9,29.78,South,172,3.6,3.6,13,0.00,,-RA,0.00,VWS V14.01,2013-06-18 20:12:00,
2013-06-18 16:18:00,85.3,28.9,29.78,NE,38,4.0,4.0,13,0.00,,-RA,0.00,VWS V14.01,2013-06-18 20:18:00,
2013-06-18 16:23:00,85.3,28.9,29.78,SSE,165,4.0,4.0,13,0.00,,-RA,0.00,VWS V14.01,2013-06-18 20:23:00,
2013-06-18 16:28:00,85.3,28.9,29.78,SE,124,2.7,3.1,13,0.00,,-RA,0.00,VWS V14.01,2013-06-18 20:28:00,
2013-06-18 16:33:00,85.3,28.9,29.78,South,177,3.1,3.1,13,0.00,,-RA,0.00,VWS V14.01,2013-06-18 20:33:00,
2013-06-18 16:38:00,85.3,28.9,29.78,ESE,108,3.1,3.1,13,0.00,,-RA,0.00,VWS V14.01,2013-06-18 20:38:00,
2013-06-18 16:43:00,85.3,28.9,29.78,SSW,211,0.0,0.0,13,0.00,,-RA,0.00,VWS V14.01,2013-06-18 20:43:00,
2013-06-18 16:48:00,73.0,24.2,29.78,South,179,0.0,0.0,16,0.00,,-RA,0.00,VWS V14.01,2013-06-18 20:48:00,
2013-06-18 16:54:00,72.7,23.9,29.78,South,171,0.0,0.0,16,0.00,,-RA,0.00,VWS V14.01,2013-06-18 20:54:00,
2013-06-18 16:59:00,72.9,24.1,29.78,South,171,0.0,0.0,16,0.00,,-RA,0.00,VWS V14.01,2013-06-18 20:59:00,
2013-06-18 17:04:00,73.0,24.2,29.78,ESE,121,4.0,4.0,16,0.00,,-RA,0.00,VWS V14.01,2013-06-18 21:04:00,
2013-06-18 17:09:00,72.9,24.1,29.78,SE,133,2.2,2.2,16,0.00,,-RA,0.00,VWS V14.01,2013-06-18 21:09:00,
2013-06-18 17:14:00,72.9,28.2,29.78,SE,133,0.0,0.0,19,0.00,,-RA,0.00,VWS V14.01,2013-06-18 21:14:00,
2013-06-18 17:19:00,73.2,28.5,29.78,NNE,29,2.2,2.2,19,0.00,,-RA,0.00,VWS V14.01,2013-06-18 21:19:00,
2013-06-18 17:24:00,73.4,24.5,29.78,NNE,22,0.0,0.0,16,0.00,,-RA,0.00,VWS V14.01,2013-06-18 21:24:00,
2013-06-18 17:29:00,73.6,24.7,29.78,SSE,149,4.0,4.0,16,0.00,,-RA,0.00,VWS V14.01,2013-06-18 21:29:00,
2013-06-18 17:34:00,73.6,24.7,29.78,SSE,157,3.1,3.1,16,0.00,,-RA,0.00,VWS V14.01,2013-06-18 21:34:00,
2013-06-18 17:39:00,73.6,24.7,29.78,SE,143,0.0,0.0,16,0.00,,-RA,0.00,VWS V14.01,2013-06-18 21:39:00,
2013-06-18 17:44:00,73.6,24.7,29.78,SE,145,2.2,2.2,16,0.00,,-RA,0.00,VWS V14.01,2013-06-18 21:44:00,
2013-06-18 17:50:00,76.8,25.7,29.78,ESE,102,2.7,2.7,15,0.00,,-RA,0.00,VWS V14.01,2013-06-18 21:50:00,
2013-06-18 17:55:00,76.8,25.7,29.78,SE,133,0.0,0.0,15,0.00,,-RA,0.00,VWS V14.01,2013-06-18 21:55:00,
2013-06-18 18:00:00,76.8,25.7,29.78,SSW,201,3.6,3.6,15,0.00,,-RA,0.00,VWS V14.01,2013-06-18 22:00:00,
2013-06-18 18:05:00,76.8,25.7,29.78,SSW,194,2.7,2.7,15,0.00,,-RA,0.00,VWS V14.01,2013-06-18 22:05:00,
2013-06-18 18:10:00,76.8,25.7,29.78,WSW,249,2.2,2.2,15,0.00,,-RA,0.00,VWS V14.01,2013-06-18 22:10:00,
2013-06-18 18:15:00,76.8,25.7,29.78,SSE,167,4.9,4.9,15,0.00,,-RA,0.00,VWS V14.01,2013-06-18 22:15:00,
2013-06-18 18:20:00,76.8,25.7,29.78,SSW,198,2.2,2.2,15,0.00,,-RA,0.00,VWS V14.01,2013-06-18 22:20:00,
2013-06-18 18:25:00,76.8,25.7,29.78,SW,222,3.6,3.6,15,0.00,,-RA,0.00,VWS V14.01,2013-06-18 22:25:00,
2013-06-18 18:31:00,76.8,25.7,29.78,WSW,246,2.7,2.7,15,0.00,,-RA,0.00,VWS V14.01,2013-06-18 22:31:00,
2013-06-18 18:36:00,76.8,25.7,29.78,SSE,158,4.0,4.0,15,0.00,,-RA,0.00,VWS V14.01,2013-06-18 22:36:00,
2013-06-18 18:41:00,76.8,25.7,29.78,SSE,150,2.2,2.2,15,0.00,,-RA,0.00,VWS V14.01,2013-06-18 22:41:00,
2013-06-18 18:46:00,76.8,25.7,29.78,South,186,5.4,5.4,15,0.00,,-RA,0.00,VWS V14.01,2013-06-18 22:46:00,
2013-06-18 18:51:00,76.8,25.7,29.78,South,184,0.0,0.0,15,0.00,,-RA,0.00,VWS V14.01,2013-06-18 22:51:00,
2013-06-18 18:56:00,76.8,25.7,29.78,South,172,0.0,0.0,15,0.00,,-RA,0.00,VWS V14.01,2013-06-18 22:56:00,
2013-06-18 19:01:00,76.8,25.7,29.78,SSE,158,0.0,2.7,15,0.00,,FEW120,0.00,VWS V14.01,2013-06-18 23:01:00,
2013-06-18 19:06:00,76.8,25.7,29.78,SSE,158,0.0,0.0,15,0.00,,FEW120,0.00,VWS V14.01,2013-06-18 23:06:00,
2013-06-18 19:11:00,76.8,25.7,29.78,SSE,158,0.0,0.0,15,0.00,,FEW120,0.00,VWS V14.01,2013-06-18 23:11:00,
2013-06-18 19:16:00,76.8,25.7,29.78,South,172,0.0,0.0,15,0.00,,FEW120,0.00,VWS V14.01,2013-06-18 23:16:00,
2013-06-18 19:21:00,76.8,25.7,29.78,South,171,0.0,0.0,15,0.00,,FEW120,0.00,VWS V14.01,2013-06-18 23:21:00,
2013-06-18 19:26:00,76.8,25.7,29.78,SE,129,0.0,0.0,15,0.00,,FEW120,0.00,VWS V14.01,2013-06-18 23:26:00,
2013-06-18 19:32:00,76.8,25.7,29.78,ESE,112,0.0,0.0,15,0.00,,FEW120,0.00,VWS V14.01,2013-06-18 23:32:00,
2013-06-18 19:37:00,69.3,26.5,29.78,ESE,112,0.0,0.0,20,0.00,,FEW120,0.00,VWS V14.01,2013-06-18 23:37:00,
2013-06-18 19:42:00,69.1,28.7,29.78,ESE,112,0.0,0.0,22,0.00,,FEW120,0.00,VWS V14.01,2013-06-18 23:42:00,
2013-06-18 19:47:00,69.1,28.7,29.78,ESE,112,0.0,0.0,22,0.00,,FEW120,0.00,VWS V14.01,2013-06-18 23:47:00,
2013-06-18 19:52:00,68.9,28.5,29.81,ESE,112,0.0,0.0,22,0.00,,FEW120,0.00,VWS V14.01,2013-06-18 23:52:00,
2013-06-18 19:57:00,68.9,28.5,29.81,ESE,112,0.0,0.0,22,0.00,,FEW120,0.00,VWS V14.01,2013-06-18 23:57:00,
2013-06-18 20:02:00,68.9,28.5,29.81,ESE,112,0.0,0.0,22,0.00,,CLR,0.00,VWS V14.01,2013-06-19 00:02:00,
2013-06-18 20:07:00,68.2,29.0,29.81,ESE,112,0.0,0.0,23,0.00,,CLR,0.00,VWS V14.01,2013-06-19 00:07:00,
2013-06-18 20:12:00,68.2,29.0,29.81,ESE,112,0.0,0.0,23,0.00,,CLR,0.00,VWS V14.01,2013-06-19 00:12:00,
2013-06-18 20:18:00,67.6,28.5,29.81,ESE,112,0.0,0.0,23,0.00,,CLR,0.00,VWS V14.01,2013-06-19 00:18:00,
2013-06-18 20:23:00,67.6,28.5,29.81,ESE,112,0.0,0.0,23,0.00,,CLR,0.00,VWS V14.01,2013-06-19 00:23:00,
2013-06-18 20:28:00,67.1,29.1,29.81,ESE,112,0.0,0.0,24,0.00,,CLR,0.00,VWS V14.01,2013-06-19 00:28:00,
2013-06-18 20:33:00,66.9,29.0,29.81,ESE,112,0.0,0.0,24,0.00,,CLR,0.00,VWS V14.01,2013-06-19 00:33:00,
2013-06-18 20:38:00,66.9,29.0,29.81,ESE,112,0.0,0.0,24,0.00,,CLR,0.00,VWS V14.01,2013-06-19 00:38:00,
2013-06-18 20:43:00,66.4,32.3,29.81,ESE,112,0.0,0.0,28,0.00,,CLR,0.00,VWS V14.01,2013-06-19 00:43:00,
2013-06-18 20:48:00,66.4,32.3,29.81,ESE,112,0.0,0.0,28,0.00,,CLR,0.00,VWS V14.01,2013-06-19 00:48:00,
2013-06-18 20:53:00,66.4,32.3,29.81,ESE,112,0.0,0.0,28,0.00,,CLR,0.00,VWS V14.01,2013-06-19 00:53:00,
2013-06-18 20:59:00,65.8,32.7,29.81,ESE,112,0.0,0.0,29,0.00,,CLR,0.00,VWS V14.01,2013-06-19 00:59:00,
2013-06-18 21:04:00,65.8,33.6,29.81,ESE,112,0.0,0.0,30,0.00,,FEW030,0.00,VWS V14.01,2013-06-19 01:04:00,
2013-06-18 21:09:00,66.0,34.5,29.81,ESE,112,0.0,0.0,31,0.00,,FEW030,0.00,VWS V14.01,2013-06-19 01:09:00,
2013-06-18 21:14:00,66.0,34.5,29.81,ESE,112,0.0,0.0,31,0.00,,FEW030,0.00,VWS V14.01,2013-06-19 01:14:00,
2013-06-18 21:19:00,66.0,34.5,29.81,ESE,112,0.0,0.0,31,0.00,,FEW030,0.00,VWS V14.01,2013-06-19 01:19:00,
2013-06-18 21:24:00,66.0,34.5,29.81,ESE,112,0.0,0.0,31,0.00,,FEW030,0.00,VWS V14.01,2013-06-19 01:24:00,
2013-06-18 21:29:00,66.0,34.5,29.81,ESE,112,0.0,0.0,31,0.00,,FEW030,0.00,VWS V14.01,2013-06-19 01:29:00,
2013-06-18 21:34:00,65.1,32.9,29.81,ESE,112,0.0,0.0,30,0.00,,FEW030,0.00,VWS V14.01,2013-06-19 01:34:00,
2013-06-18 21:39:00,65.1,32.9,29.81,ESE,112,0.0,0.0,30,0.00,,FEW030,0.00,VWS V14.01,2013-06-19 01:39:00,
2013-06-18 21:44:00,65.1,32.9,29.81,ESE,112,0.0,0.0,30,0.00,,FEW030,0.00,VWS V14.01,2013-06-19 01:44:00,
2013-06-18 21:49:00,65.1,32.9,29.81,North,2,2.7,2.7,30,0.00,,FEW030,0.00,VWS V14.01,2013-06-19 01:49:00,
2013-06-18 21:54:00,64.4,35.5,29.81,North,7,0.0,0.0,34,0.00,,FEW030,0.00,VWS V14.01,2013-06-19 01:54:00,
2013-06-18 21:59:00,64.2,35.3,29.81,North,7,0.0,0.0,34,0.00,,FEW030,0.00,VWS V14.01,2013-06-19 01:59:00,
2013-06-18 22:04:00,64.2,35.3,29.81,NE,45,0.0,0.0,34,0.00,,FEW110,0.00,VWS V14.01,2013-06-19 02:04:00,
2013-06-18 22:09:00,64.2,36.0,29.81,NE,45,0.0,0.0,35,0.00,,FEW110,0.00,VWS V14.01,2013-06-19 02:09:00,
2013-06-18 22:15:00,63.9,35.0,29.81,NE,45,0.0,0.0,34,0.00,,FEW110,0.00,VWS V14.01,2013-06-19 02:15:00,
2013-06-18 22:20:00,63.7,34.8,29.81,SE,129,0.0,0.0,34,0.00,,FEW110,0.00,VWS V14.01,2013-06-19 02:20:00,
2013-06-18 22:25:00,63.5,34.7,29.84,SE,129,0.0,0.0,34,0.00,,FEW110,0.00,VWS V14.01,2013-06-19 02:25:00,
2013-06-18 22:30:00,63.3,34.5,29.84,SE,129,0.0,0.0,34,0.00,,FEW110,0.00,VWS V14.01,2013-06-19 02:30:00,
2013-06-18 22:35:00,63.3,34.5,29.84,SE,129,0.0,0.0,34,0.00,,FEW110,0.00,VWS V14.01,2013-06-19 02:35:00,
2013-06-18 22:40:00,63.0,34.2,29.84,SE,129,0.0,0.0,34,0.00,,FEW110,0.00,VWS V14.01,2013-06-19 02:40:00,
2013-06-18 22:45:00,62.8,34.0,29.84,SE,129,0.0,0.0,34,0.00,,FEW110,0.00,VWS V14.01,2013-06-19 02:45:00,
2013-06-18 22:50:00,62.6,33.9,29.81,SE,129,0.0,0.0,34,0.00,,FEW110,0.00,VWS V14.01,2013-06-19 02:50:00,
2013-06-18 22:55:00,63.0,34.9,29.81,SE,129,0.0,0.0,35,0.00,,FEW110,0.00,VWS V14.01,2013-06-19 02:55:00,
2013-06-18 23:01:00,63.0,34.9,29.81,SE,129,0.0,0.0,35,0.00,,CLR,0.00,VWS V14.01,2013-06-19 03:01:00,
2013-06-18 23:06:00,63.0,34.9,29.84,SE,129,0.0,0.0,35,0.00,,CLR,0.00,VWS V14.01,2013-06-19 03:06:00,
2013-06-18 23:11:00,62.8,34.8,29.84,SE,129,0.0,0.0,35,0.00,,CLR,0.00,VWS V14.01,2013-06-19 03:11:00,
2013-06-18 23:16:00,62.8,34.8,29.84,SE,129,0.0,0.0,35,0.00,,CLR,0.00,VWS V14.01,2013-06-19 03:16:00,
2013-06-18 23:21:00,63.0,35.6,29.84,SE,129,0.0,0.0,36,0.00,,CLR,0.00,VWS V14.01,2013-06-19 03:21:00,
2013-06-18 23:26:00,63.0,35.6,29.84,SE,129,0.0,0.0,36,0.00,,CLR,0.00,VWS V14.01,2013-06-19 03:26:00,
2013-06-18 23:31:00,63.1,38.5,29.84,NE,53,0.0,0.0,40,0.00,,CLR,0.00,VWS V14.01,2013-06-19 03:31:00,
2013-06-18 23:36:00,63.1,40.9,29.84,NNE,13,2.2,2.2,44,0.00,,CLR,0.00,VWS V14.01,2013-06-19 03:36:00,
2013-06-18 23:41:00,63.0,38.9,29.84,NNE,13,0.0,0.0,41,0.00,,CLR,0.00,VWS V14.01,2013-06-19 03:41:00,
2013-06-18 23:47:00,63.0,38.3,29.84,NNE,13,0.0,0.0,40,0.00,,CLR,0.00,VWS V14.01,2013-06-19 03:47:00,
2013-06-18 23:52:00,62.6,37.3,29.84,NNE,13,0.0,0.0,39,0.00,,CLR,0.00,VWS V14.01,2013-06-19 03:52:00,
2013-06-18 23:57:00,62.6,37.3,29.84,NNE,13,0.0,0.0,39,0.00,,CLR,0.00,VWS V14.01,2013-06-19 03:57:00,